Sam Sing — PH2979 — position and weather

sailwx.info

Track history (hours):
 
Tides and Currents Weather Stations Pressure Air Temp Water Temp Dewpoint Dewpoint Depression Visibility Wind Speed Wind Dir Waves Ship Positions

Sam Sing

Last reported at 2017-Jul-12 15:03 UTC. Time now 2017-Jul-24 02:47 UTC.
Position N 44°60' E 013°39'.
Warning: this ship's position is 11 days out of date.

Length 13 m.

Type: Sailing vessel. MMSI: 244020860.

Date/timePositionNaut miles runAvg speedWind from/ knotsBaromVisibWave heightAir tempDewpointWater temp
2017-Jul-12 15:03N 44°60' E 013°39'1 6.6
2017-Jul-12 14:55N 45°00' E 013°39'3 3.3
2017-Jul-12 14:00N 45°03' E 013°38'1 1.8
2017-Jul-12 13:26N 45°04' E 013°37'3 6.1
2017-Jul-12 13:00N 45°06' E 013°35'3 5.6
2017-Jul-12 12:30N 45°09' E 013°34'2 3.5
2017-Jul-12 11:59N 45°11' E 013°34'3 0.1
2017-Jul-11 14:56N 45°14' E 013°35'0 0.6
2017-Jul-11 14:18N 45°14' E 013°35'2 5.2
2017-Jul-11 14:00N 45°15' E 013°33'3 5.9
2017-Jul-11 13:28N 45°16' E 013°29'3 5.0
2017-Jul-11 12:55N 45°17' E 013°25'2 6.0
2017-Jul-11 12:30N 45°17' E 013°22'3 5.9
2017-Jul-11 12:00N 45°17' E 013°18'3 5.0
2017-Jul-11 11:29N 45°17' E 013°14'4 6.2
2017-Jul-11 10:51N 45°17' E 013°09'30 5.7
2017-Jul-11 05:39N 45°25' E 012°28'0 2.3
2017-Jul-11 05:30N 45°25' E 012°27'3 6.3
2017-Jul-11 05:00N 45°26' E 012°23'2 0.0
2017-Jul-09 07:54N 45°26' E 012°21'  
2017-Jul-04 11:00N 45°14' E 013°35'1 2.0
2017-Jul-04 10:30N 45°13' E 013°34'2 3.5
2017-Jul-04 09:53N 45°11' E 013°34'  
Track history (hours):
 
Tides and Currents Weather Stations Pressure Air Temp Water Temp Dewpoint Dewpoint Depression Visibility Wind Speed Wind Dir Waves Ship Positions

Sam Sing

Last reported at 2017-Jul-12 15:03 UTC. Time now 2017-Jul-24 02:47 UTC.
Position N 44°60' E 013°39'.
Warning: this ship's position is 11 days out of date.

Length 13 m.

Type: Sailing vessel. MMSI: 244020860.

Date/timePositionNaut miles runAvg speedWind from/ knotsBaromVisibWave heightAir tempDewpointWater temp
2017-Jul-12 15:03N 44°60' E 013°39'1 6.6
2017-Jul-12 14:55N 45°00' E 013°39'3 3.3
2017-Jul-12 14:00N 45°03' E 013°38'1 1.8
2017-Jul-12 13:26N 45°04' E 013°37'3 6.1
2017-Jul-12 13:00N 45°06' E 013°35'3 5.6
2017-Jul-12 12:30N 45°09' E 013°34'2 3.5
2017-Jul-12 11:59N 45°11' E 013°34'3 0.1
2017-Jul-11 14:56N 45°14' E 013°35'0 0.6
2017-Jul-11 14:18N 45°14' E 013°35'2 5.2
2017-Jul-11 14:00N 45°15' E 013°33'3 5.9
2017-Jul-11 13:28N 45°16' E 013°29'3 5.0
2017-Jul-11 12:55N 45°17' E 013°25'2 6.0
2017-Jul-11 12:30N 45°17' E 013°22'3 5.9
2017-Jul-11 12:00N 45°17' E 013°18'3 5.0
2017-Jul-11 11:29N 45°17' E 013°14'4 6.2
2017-Jul-11 10:51N 45°17' E 013°09'30 5.7
2017-Jul-11 05:39N 45°25' E 012°28'0 2.3
2017-Jul-11 05:30N 45°25' E 012°27'3 6.3
2017-Jul-11 05:00N 45°26' E 012°23'2 0.0
2017-Jul-09 07:54N 45°26' E 012°21'  
2017-Jul-04 11:00N 45°14' E 013°35'1 2.0
2017-Jul-04 10:30N 45°13' E 013°34'2 3.5
2017-Jul-04 09:53N 45°11' E 013°34'  

Dump ship's entire track history